CDT,Max TemperatureF,Mean TemperatureF,Min TemperatureF,Max Dew PointF,MeanDew PointF,Min DewpointF,Max Humidity, Mean Humidity, Min Humidity, Max Sea Level PressureIn, Mean Sea Level PressureIn, Min Sea Level PressureIn, Max VisibilityMiles, Mean VisibilityMiles, Min VisibilityMiles, Max Wind SpeedMPH, Mean Wind SpeedMPH, Max Gust SpeedMPH,PrecipitationIn, CloudCover, Events, WindDirDegrees
2013-5-1,81,68,54,58,54,49,95,62,37,30.15,30.09,29.99,10,10,7,14,7,20,0.00,0,,155
2013-5-2,64,54,43,56,47,39,94,77,59,30.18,30.14,30.10,10,10,7,20,8,25,0.07,4,Rain-Thunderstorm,27
2013-5-3,62,51,41,57,46,38,97,91,84,30.11,29.99,29.91,10,8,3,16,11,22,0.07,6,Rain-Thunderstorm,40
2013-5-4,70,61,52,54,51,47,98,76,49,30.04,29.97,29.92,10,9,4,18,7,22,0.00,5,Rain,92
2013-5-5,73,60,48,51,47,42,95,67,34,30.04,29.99,29.94,10,10,4,21,6,26,0.00,4,Rain,44
2013-5-6,74,62,50,49,44,36,82,54,37,30.03,29.99,29.95,10,10,10,14,6,22,0.00,6,,27
2013-5-7,78,60,43,52,44,37,87,56,23,30.05,30.01,29.97,10,10,4,13,3,17,0.00,0,,32
2013-5-8,80,64,48,54,48,40,93,57,24,30.05,30.00,29.96,10,10,5,8,2,,0.00,1,,37
2013-5-9,72,62,53,61,56,50,98,82,54,29.99,29.92,29.83,10,9,2,17,5,22,0.27,5,Rain,162
2013-5-10,60,52,45,59,50,41,100,91,82,29.99,29.89,29.79,10,7,1,13,7,18,0.00,7,,325
2013-5-11,63,52,42,51,39,27,97,68,33,30.06,29.96,29.86,10,9,2,22,8,31,0.00,6,,276
2013-5-12,56,45,35,32,28,22,83,53,28,30.14,30.10,30.06,10,10,10,16,7,25,0.00,1,,288
2013-5-13,66,50,34,36,30,23,86,48,22,30.20,30.12,30.05,10,10,10,13,4,20,0.00,1,,250
2013-5-14,89,70,52,59,49,36,62,48,26,30.04,29.82,29.71,10,10,10,23,13,30,0.00,0,,209
2013-5-15,85,72,60,60,53,43,73,51,24,29.86,29.80,29.72,10,10,7,18,11,25,0.00,0,Rain-Thunderstorm,252
2013-5-16,84,67,52,51,47,41,90,51,23,29.97,29.91,29.83,10,10,5,9,2,,0.00,2,Thunderstorm,72
2013-5-17,83,70,57,65,57,47,95,74,39,30.04,30.00,29.96,10,10,3,20,4,28,0.15,6,Rain-Thunderstorm,103
2013-5-18,78,68,58,64,62,58,100,80,59,30.07,30.02,29.95,10,7,1,13,7,17,0.01,4,,115
2013-5-19,86,73,60,68,63,58,99,70,39,29.98,29.89,29.79,10,8,1,16,6,22,0.00,1,,132
2013-5-20,88,76,63,69,62,56,96,62,33,29.86,29.80,29.74,10,10,2,25,14,43,0.22,2,Rain-Thunderstorm,189
2013-5-21,80,71,62,68,64,60,96,79,60,29.80,29.74,29.69,10,10,5,22,12,30,0.00,4,Rain-Thunderstorm,202
2013-5-22,74,68,60,65,60,54,94,79,52,29.79,29.71,29.64,10,10,4,18,11,25,0.02,7,Rain,225
2013-5-23,60,50,41,56,46,34,97,82,64,30.28,30.02,29.79,10,10,4,17,9,26,0.01,6,Rain,349
2013-5-24,59,48,37,40,35,31,89,62,37,30.42,30.36,30.28,10,10,10,13,6,18,0.00,0,,18
2013-5-25,57,48,39,49,40,34,93,71,52,30.41,30.35,30.26,10,10,10,10,4,,0.02,6,Rain,70
2013-5-26,61,51,41,54,48,39,97,82,54,30.30,30.24,30.11,10,9,4,13,5,16,0.48,6,Rain-Thunderstorm,106
2013-5-27,66,60,55,64,59,54,100,96,86,30.13,29.97,29.84,10,6,2,18,10,24,1.21,8,Rain-Thunderstorm,103
2013-5-28,77,70,63,69,65,61,96,87,74,29.89,29.84,29.79,10,10,4,29,10,36,0.27,5,Rain-Thunderstorm,188
2013-5-29,84,73,63,70,65,60,98,75,57,29.97,29.92,29.84,10,10,7,21,9,32,0.26,3,Rain-Thunderstorm,189
2013-5-30,84,74,64,70,66,61,95,76,57,29.97,29.92,29.85,10,10,2,25,13,52,0.19,4,Rain-Thunderstorm,174
2013-5-31,76,70,64,69,65,61,96,87,75,29.93,29.86,29.77,10,10,3,22,11,31,0.49,5,Rain-Thunderstorm,177